Time;durP1;ratioP1;P1;durP2;ratioP2;P2;SDS_P1;SDS_P2;PMS_P1;PMS_P2;Temp;Humidity;BMP_temperature;BMP_pressure;BME280_temperature;BME280_humidity;BME280_pressure;Samples;Min_cycle;Max_cycle;Signal;HPM_P1;HPM_P2
2022/09/09 00:00:33;;;;;;;40.10;24.48;;;;;;;;;;5091875;28;20026;-73
2022/09/09 00:03:02;;;;;;;32.13;21.40;;;;;;;;;;5092289;28;20051;-73
2022/09/09 00:05:47;;;;;;;31.75;18.52;;;;;;;;;;5092761;28;20020;-73
2022/09/09 00:08:20;;;;;;;22.73;18.70;;;;;;;;;;5102980;28;20463;-73
2022/09/09 00:10:49;;;;;;;23.40;16.33;;;;;;;;;;5094105;28;20062;-73
2022/09/09 00:13:24;;;;;;;24.85;17.92;;;;;;;;;;5112685;28;20028;-73
2022/09/09 00:16:08;;;;;;;28.92;15.77;;;;;;;;;;5079474;28;20379;-73
2022/09/09 00:18:41;;;;;;;20.65;15.43;;;;;;;;;;5112460;28;20601;-73
2022/09/09 00:21:11;;;;;;;22.95;14.95;;;;;;;;;;5093862;28;20031;-73
2022/09/09 00:23:44;;;;;;;22.75;16.65;;;;;;;;;;5107806;28;20034;-73
2022/09/09 00:26:13;;;;;;;32.88;16.02;;;;;;;;;;5091958;28;20483;-73
2022/09/09 00:28:43;;;;;;;25.90;16.80;;;;;;;;;;5091842;28;20031;-73
2022/09/09 00:31:14;;;;;;;28.98;17.95;;;;;;;;;;5091325;28;20016;-73
2022/09/09 00:33:42;;;;;;;24.92;18.00;;;;;;;;;;5091902;28;20031;-73
2022/09/09 00:36:13;;;;;;;26.65;19.45;;;;;;;;;;5091589;28;20056;-73
2022/09/09 00:38:47;;;;;;;30.25;17.17;;;;;;;;;;5091566;28;20047;-73
2022/09/09 00:41:23;;;;;;;27.27;18.88;;;;;;;;;;5091341;28;20458;-73
2022/09/09 00:43:57;;;;;;;25.55;17.65;;;;;;;;;;5060925;28;20016;-73
2022/09/09 00:46:23;;;;;;;35.78;19.33;;;;;;;;;;5105509;28;20360;-74
2022/09/09 00:48:58;;;;;;;24.58;17.65;;;;;;;;;;5106773;28;20016;-73
2022/09/09 00:51:50;;;;;;;33.47;19.83;;;;;;;;;;5082526;28;20455;-73
2022/09/09 00:54:31;;;;;;;24.63;18.05;;;;;;;;;;5070311;28;20032;-73
2022/09/09 00:57:04;;;;;;;29.80;17.25;;;;;;;;;;5090908;28;20032;-73
2022/09/09 00:59:43;;;;;;;26.73;15.70;;;;;;;;;;5102415;28;20102;-74
2022/09/09 01:02:28;;;;;;;25.60;15.38;;;;;;;;;;5092734;28;20052;-73
2022/09/09 01:04:54;;;;;;;26.05;16.15;;;;;;;;;;5073578;28;20398;-73
2022/09/09 01:07:21;;;;;;;23.63;16.45;;;;;;;;;;5111898;28;20020;-72
2022/09/09 01:09:57;;;;;;;24.40;17.00;;;;;;;;;;5101964;28;20016;-73
2022/09/09 01:12:24;;;;;;;27.55;15.15;;;;;;;;;;5095512;28;20028;-72
2022/09/09 01:14:52;;;;;;;22.02;15.52;;;;;;;;;;5094067;28;20020;-73
2022/09/09 01:17:18;;;;;;;32.70;19.92;;;;;;;;;;5094948;28;20040;-73
2022/09/09 01:19:44;;;;;;;23.40;16.92;;;;;;;;;;5095405;28;20418;-72
2022/09/09 01:22:26;;;;;;;20.30;15.55;;;;;;;;;;5095078;28;20019;-73
2022/09/09 01:25:04;;;;;;;21.92;14.23;;;;;;;;;;5095382;28;20024;-73
2022/09/09 01:27:31;;;;;;;24.90;15.48;;;;;;;;;;5101998;28;20039;-73
2022/09/09 01:29:59;;;;;;;19.88;15.35;;;;;;;;;;5097742;28;20424;-73
2022/09/09 01:32:42;;;;;;;25.67;16.17;;;;;;;;;;5110851;28;20371;-73
2022/09/09 01:35:10;;;;;;;20.92;15.38;;;;;;;;;;5101004;28;20061;-73
2022/09/09 01:37:36;;;;;;;23.77;14.82;;;;;;;;;;5102828;28;20036;-74
2022/09/09 01:40:03;;;;;;;21.92;14.85;;;;;;;;;;5094754;28;20077;-73
2022/09/09 01:42:29;;;;;;;20.35;14.00;;;;;;;;;;5096095;28;20836;-77
2022/09/09 01:44:55;;;;;;;25.67;14.40;;;;;;;;;;5095033;28;20095;-79
2022/09/09 01:47:21;;;;;;;24.48;15.57;;;;;;;;;;5119438;27;20087;-77
2022/09/09 01:49:47;;;;;;;24.02;14.30;;;;;;;;;;5082380;28;20042;-78
2022/09/09 01:52:13;;;;;;;24.10;14.13;;;;;;;;;;5110909;28;20024;-76
2022/09/09 01:54:39;;;;;;;25.50;13.38;;;;;;;;;;5110742;28;20024;-77
2022/09/09 01:57:14;;;;;;;26.38;14.88;;;;;;;;;;5076323;28;20024;-77
2022/09/09 02:00:20;;;;;;;20.08;14.45;;;;;;;;;;5110703;28;20019;-78
2022/09/09 02:02:57;;;;;;;26.98;15.88;;;;;;;;;;5001929;28;20544;-76
2022/09/09 02:05:29;;;;;;;20.58;12.65;;;;;;;;;;4995882;28;20038;-79
2022/09/09 02:08:00;;;;;;;17.23;13.30;;;;;;;;;;5062198;28;20031;-77
2022/09/09 02:10:33;;;;;;;20.98;14.05;;;;;;;;;;5096491;28;20098;-78
2022/09/09 02:13:03;;;;;;;19.23;12.80;;;;;;;;;;5087170;28;20016;-78
2022/09/09 02:15:32;;;;;;;19.73;13.38;;;;;;;;;;5096808;28;20028;-78
2022/09/09 02:17:59;;;;;;;18.58;14.23;;;;;;;;;;5067977;28;20097;-80
2022/09/09 02:20:27;;;;;;;19.13;13.57;;;;;;;;;;5056808;28;20027;-81
2022/09/09 02:22:54;;;;;;;25.33;14.98;;;;;;;;;;5106272;28;20016;-79
2022/09/09 02:25:21;;;;;;;27.70;15.05;;;;;;;;;;5094639;28;20020;-78
2022/09/09 02:27:49;;;;;;;22.33;13.20;;;;;;;;;;5076149;28;20042;-78
2022/09/09 02:30:15;;;;;;;21.90;12.35;;;;;;;;;;5110075;28;20055;-76
2022/09/09 02:32:42;;;;;;;22.80;14.82;;;;;;;;;;5109999;28;20403;-78
2022/09/09 02:35:14;;;;;;;26.45;13.35;;;;;;;;;;5081792;28;20047;-76
2022/09/09 02:37:41;;;;;;;21.80;14.00;;;;;;;;;;5101504;28;20042;-76
2022/09/09 02:40:09;;;;;;;18.85;13.63;;;;;;;;;;5129056;27;20027;-78
2022/09/09 02:42:39;;;;;;;18.02;12.80;;;;;;;;;;5084722;28;20065;-77
2022/09/09 02:45:06;;;;;;;20.77;12.65;;;;;;;;;;5090240;28;20089;-77
2022/09/09 02:47:36;;;;;;;32.67;13.27;;;;;;;;;;5109712;28;20020;-77
2022/09/09 02:50:35;;;;;;;20.00;13.25;;;;;;;;;;5094746;28;20103;-77
2022/09/09 02:53:18;;;;;;;19.48;13.50;;;;;;;;;;5066444;28;20036;-78
2022/09/09 02:55:59;;;;;;;25.63;14.70;;;;;;;;;;5080991;28;20020;-77
2022/09/09 02:58:25;;;;;;;26.88;14.35;;;;;;;;;;5110710;28;20040;-76
2022/09/09 03:00:52;;;;;;;25.33;13.93;;;;;;;;;;5095654;28;20011;-77
2022/09/09 03:03:19;;;;;;;27.77;15.10;;;;;;;;;;5081459;28;20478;-76
2022/09/09 03:05:46;;;;;;;21.42;14.23;;;;;;;;;;5078119;28;20426;-79
2022/09/09 03:08:12;;;;;;;21.98;13.07;;;;;;;;;;5075557;28;20383;-78
2022/09/09 03:10:39;;;;;;;18.50;14.50;;;;;;;;;;5127867;27;20016;-77
2022/09/09 03:13:05;;;;;;;23.98;15.02;;;;;;;;;;5085129;28;20030;-78
2022/09/09 03:15:32;;;;;;;17.08;12.95;;;;;;;;;;5077485;28;20024;-77
2022/09/09 03:17:58;;;;;;;26.48;14.18;;;;;;;;;;5086588;28;20051;-79
2022/09/09 03:20:25;;;;;;;20.45;13.70;;;;;;;;;;5089123;28;20026;-79
2022/09/09 03:22:52;;;;;;;22.75;14.40;;;;;;;;;;5108898;28;20020;-78
2022/09/09 03:25:18;;;;;;;24.98;13.55;;;;;;;;;;5108900;28;20016;-78
2022/09/09 03:27:44;;;;;;;23.63;14.98;;;;;;;;;;5093063;28;20031;-77
2022/09/09 03:30:10;;;;;;;29.77;14.85;;;;;;;;;;5093384;28;20074;-78
2022/09/09 03:32:36;;;;;;;28.45;14.00;;;;;;;;;;5092756;28;20016;-78
2022/09/09 03:35:03;;;;;;;21.45;12.82;;;;;;;;;;5108361;28;20061;-79
2022/09/09 03:37:29;;;;;;;24.80;15.35;;;;;;;;;;5093942;28;20040;-76
2022/09/09 03:39:55;;;;;;;25.23;15.88;;;;;;;;;;5093121;28;20054;-78
2022/09/09 03:42:21;;;;;;;25.77;17.00;;;;;;;;;;5074128;28;20035;-76
2022/09/09 03:44:49;;;;;;;20.73;14.57;;;;;;;;;;5074715;28;20024;-75
2022/09/09 03:47:15;;;;;;;33.47;14.35;;;;;;;;;;5074294;28;20022;-76
2022/09/09 03:49:42;;;;;;;26.95;15.32;;;;;;;;;;5108324;28;20106;-77
2022/09/09 03:52:09;;;;;;;25.90;13.25;;;;;;;;;;5125148;27;20027;-77
2022/09/09 03:54:36;;;;;;;17.80;13.55;;;;;;;;;;5085460;28;20051;-77
2022/09/09 03:57:02;;;;;;;20.50;14.85;;;;;;;;;;5093496;28;20494;-78
2022/09/09 03:59:29;;;;;;;23.55;14.02;;;;;;;;;;5087847;28;20387;-77
2022/09/09 04:01:55;;;;;;;23.20;16.13;;;;;;;;;;5074453;28;20372;-78
2022/09/09 04:04:22;;;;;;;28.60;15.05;;;;;;;;;;5107945;28;20132;-77
2022/09/09 04:06:50;;;;;;;32.70;16.92;;;;;;;;;;5099697;28;20021;-77
2022/09/09 04:09:16;;;;;;;21.20;14.02;;;;;;;;;;5073882;28;20055;-77
2022/09/09 04:11:42;;;;;;;27.35;16.23;;;;;;;;;;5118031;27;20037;-79
2022/09/09 04:14:09;;;;;;;20.52;14.60;;;;;;;;;;5106756;28;20095;-77
2022/09/09 04:16:36;;;;;;;27.33;14.25;;;;;;;;;;5082569;28;20035;-76
2022/09/09 04:19:04;;;;;;;20.48;14.70;;;;;;;;;;5113956;27;20550;-78
2022/09/09 04:21:30;;;;;;;19.15;13.27;;;;;;;;;;5094278;28;20442;-77
2022/09/09 04:23:56;;;;;;;20.17;11.90;;;;;;;;;;5081182;28;20467;-77
2022/09/09 04:26:22;;;;;;;17.70;13.13;;;;;;;;;;5076956;28;20023;-76
2022/09/09 04:28:49;;;;;;;20.75;14.82;;;;;;;;;;5083892;28;20597;-78
2022/09/09 04:31:17;;;;;;;21.65;14.65;;;;;;;;;;5107330;28;20024;-77
2022/09/09 04:33:43;;;;;;;20.48;14.18;;;;;;;;;;5082082;28;20023;-76
2022/09/09 04:36:09;;;;;;;26.00;15.25;;;;;;;;;;5079141;28;20020;-76
2022/09/09 04:38:36;;;;;;;19.25;14.80;;;;;;;;;;5099177;28;20051;-76
2022/09/09 04:41:02;;;;;;;27.55;16.98;;;;;;;;;;5103079;28;20391;-77
2022/09/09 04:43:30;;;;;;;24.90;16.73;;;;;;;;;;5080909;28;20027;-78
2022/09/09 04:45:56;;;;;;;42.00;24.77;;;;;;;;;;5073186;28;20103;-78
2022/09/09 04:48:24;;;;;;;23.83;16.60;;;;;;;;;;5073623;28;20028;-78
2022/09/09 04:50:56;;;;;;;86.13;64.05;;;;;;;;;;5078359;28;20317;-76
2022/09/09 04:53:22;;;;;;;46.65;29.77;;;;;;;;;;5072418;28;20024;-77
2022/09/09 04:55:49;;;;;;;32.72;18.40;;;;;;;;;;5098096;28;20997;-77
2022/09/09 04:58:15;;;;;;;20.00;14.43;;;;;;;;;;5072238;28;20039;-79
2022/09/09 05:00:42;;;;;;;28.20;16.67;;;;;;;;;;5100860;28;20052;-78
2022/09/09 05:03:08;;;;;;;22.02;15.13;;;;;;;;;;5100893;28;20020;-79
2022/09/09 05:05:35;;;;;;;23.63;15.10;;;;;;;;;;5073329;28;20103;-77
2022/09/09 05:08:10;;;;;;;23.55;15.02;;;;;;;;;;5093374;28;20013;-78
2022/09/09 05:10:37;;;;;;;16.00;11.63;;;;;;;;;;5077736;28;20024;-78
2022/09/09 05:13:04;;;;;;;20.83;14.68;;;;;;;;;;5087852;28;20017;-77
2022/09/09 05:15:31;;;;;;;28.27;16.90;;;;;;;;;;5091414;28;20103;-74
2022/09/09 05:17:58;;;;;;;20.88;14.13;;;;;;;;;;5100062;28;20119;-78
2022/09/09 05:20:24;;;;;;;15.73;11.05;;;;;;;;;;5099113;28;20012;-76
2022/09/09 05:22:53;;;;;;;21.45;12.82;;;;;;;;;;5091003;28;20024;-76
2022/09/09 05:25:19;;;;;;;17.73;11.20;;;;;;;;;;5089029;28;20016;-76
2022/09/09 05:27:45;;;;;;;14.15;10.70;;;;;;;;;;5105699;28;20084;-77
2022/09/09 05:30:11;;;;;;;20.20;11.32;;;;;;;;;;5090627;28;20034;-76
2022/09/09 05:32:37;;;;;;;15.60;10.07;;;;;;;;;;5090131;28;20024;-77
2022/09/09 05:35:04;;;;;;;19.95;9.43;;;;;;;;;;5083116;28;20029;-78
2022/09/09 05:37:31;;;;;;;15.82;12.52;;;;;;;;;;5101366;28;20042;-75
2022/09/09 05:39:57;;;;;;;15.68;11.43;;;;;;;;;;5089046;28;20514;-79
2022/09/09 05:42:24;;;;;;;17.67;11.80;;;;;;;;;;5093088;28;20050;-79
2022/09/09 05:44:50;;;;;;;17.45;12.35;;;;;;;;;;5096113;28;20448;-76
2022/09/09 05:47:17;;;;;;;23.30;14.65;;;;;;;;;;5105231;28;20111;-76
2022/09/09 05:49:43;;;;;;;18.50;13.30;;;;;;;;;;5082724;28;20382;-77
2022/09/09 05:52:09;;;;;;;16.83;13.68;;;;;;;;;;5089751;28;20423;-75
2022/09/09 05:54:37;;;;;;;18.33;12.00;;;;;;;;;;5090282;28;20028;-75
2022/09/09 05:57:03;;;;;;;24.05;15.52;;;;;;;;;;5092274;28;20136;-75
2022/09/09 05:59:31;;;;;;;20.27;15.77;;;;;;;;;;5100705;28;20020;-74
2022/09/09 06:01:57;;;;;;;19.08;15.23;;;;;;;;;;5114610;28;20046;-74
2022/09/09 06:04:24;;;;;;;24.42;13.60;;;;;;;;;;5098299;28;20016;-75
2022/09/09 06:06:51;;;;;;;21.05;12.90;;;;;;;;;;5096740;28;20016;-75
2022/09/09 06:09:17;;;;;;;20.17;14.50;;;;;;;;;;5097008;28;20065;-75
2022/09/09 06:11:43;;;;;;;21.80;15.00;;;;;;;;;;5093734;28;20020;-75
2022/09/09 06:14:09;;;;;;;18.30;15.15;;;;;;;;;;5112838;28;20020;-75
2022/09/09 06:16:37;;;;;;;22.20;15.32;;;;;;;;;;5102611;28;20032;-76
2022/09/09 06:19:04;;;;;;;23.63;16.42;;;;;;;;;;5093462;28;20077;-74
2022/09/09 06:21:35;;;;;;;24.77;15.77;;;;;;;;;;5094528;28;20076;-75
2022/09/09 06:24:02;;;;;;;23.75;16.90;;;;;;;;;;5096640;28;20012;-75
2022/09/09 06:26:32;;;;;;;21.75;15.45;;;;;;;;;;5109421;28;20304;-76
2022/09/09 06:28:59;;;;;;;26.05;15.68;;;;;;;;;;5093196;28;20063;-75
2022/09/09 06:31:28;;;;;;;19.98;15.32;;;;;;;;;;5108028;28;20016;-75
2022/09/09 06:33:54;;;;;;;27.73;15.93;;;;;;;;;;5074203;28;20028;-75
2022/09/09 06:36:24;;;;;;;22.77;16.98;;;;;;;;;;5093087;28;20104;-76
2022/09/09 06:38:51;;;;;;;29.48;15.45;;;;;;;;;;5041910;28;20068;-74
2022/09/09 06:41:18;;;;;;;25.50;16.58;;;;;;;;;;5045796;28;20032;-75
2022/09/09 06:43:44;;;;;;;21.95;15.57;;;;;;;;;;5053165;28;20025;-73
2022/09/09 06:46:12;;;;;;;21.00;14.88;;;;;;;;;;5042142;28;21419;-75
2022/09/09 06:48:40;;;;;;;26.08;14.73;;;;;;;;;;5036327;28;20025;-74
2022/09/09 06:51:14;;;;;;;21.40;14.68;;;;;;;;;;5048114;28;20032;-74
2022/09/09 06:53:41;;;;;;;17.83;13.55;;;;;;;;;;5049317;28;20021;-74
2022/09/09 06:56:10;;;;;;;18.05;12.68;;;;;;;;;;5052830;28;20021;-73
2022/09/09 06:58:36;;;;;;;24.00;14.57;;;;;;;;;;5053299;28;20065;-74
2022/09/09 07:01:06;;;;;;;18.13;15.13;;;;;;;;;;5052883;28;20100;-75
2022/09/09 07:03:33;;;;;;;22.42;16.25;;;;;;;;;;5038156;28;20061;-74
2022/09/09 07:06:00;;;;;;;29.27;16.63;;;;;;;;;;5038568;28;20101;-75
2022/09/09 07:08:26;;;;;;;23.73;16.48;;;;;;;;;;5051022;28;20091;-75
2022/09/09 07:10:59;;;;;;;28.67;16.63;;;;;;;;;;5041609;28;20072;-75
2022/09/09 07:13:27;;;;;;;33.78;17.40;;;;;;;;;;5051239;28;20013;-75
2022/09/09 07:15:53;;;;;;;27.75;17.48;;;;;;;;;;5051992;28;20017;-75
2022/09/09 07:18:19;;;;;;;27.20;15.80;;;;;;;;;;5039476;28;20132;-75
2022/09/09 07:20:56;;;;;;;25.10;16.23;;;;;;;;;;5042079;28;20040;-76
2022/09/09 07:23:22;;;;;;;31.25;18.60;;;;;;;;;;5055939;28;20029;-75
2022/09/09 07:25:48;;;;;;;30.70;17.48;;;;;;;;;;5049697;28;20100;-75
2022/09/09 07:28:14;;;;;;;25.70;16.55;;;;;;;;;;5038657;28;20021;-76
2022/09/09 07:30:41;;;;;;;28.80;16.75;;;;;;;;;;5051188;28;20053;-75
2022/09/09 07:33:07;;;;;;;26.63;17.45;;;;;;;;;;5051917;28;20065;-74
2022/09/09 07:35:33;;;;;;;23.80;16.15;;;;;;;;;;5052415;28;20401;-74
2022/09/09 07:38:01;;;;;;;27.40;16.02;;;;;;;;;;5055148;28;20049;-74
2022/09/09 07:40:28;;;;;;;21.00;14.88;;;;;;;;;;5093180;28;20078;-74
2022/09/09 07:42:55;;;;;;;23.23;15.65;;;;;;;;;;5092446;28;20082;-74
2022/09/09 07:45:21;;;;;;;30.95;16.23;;;;;;;;;;5092153;28;20110;-74
2022/09/09 07:47:48;;;;;;;40.70;17.70;;;;;;;;;;5098556;28;20025;-75
2022/09/09 07:50:15;;;;;;;27.10;16.88;;;;;;;;;;5091865;28;20016;-75
2022/09/09 07:52:41;;;;;;;20.58;17.50;;;;;;;;;;5091588;28;20027;-75
2022/09/09 07:55:07;;;;;;;26.58;16.58;;;;;;;;;;5091626;28;20149;-75
2022/09/09 07:57:33;;;;;;;21.52;14.95;;;;;;;;;;5091986;28;20058;-75
2022/09/09 07:59:59;;;;;;;20.98;14.02;;;;;;;;;;5092418;28;20106;-75
2022/09/09 08:02:27;;;;;;;22.55;13.23;;;;;;;;;;5100191;28;20019;-77
2022/09/09 08:04:53;;;;;;;51.05;16.08;;;;;;;;;;5079059;28;20021;-77
2022/09/09 08:07:21;;;;;;;26.10;13.82;;;;;;;;;;5098553;28;20032;-76
2022/09/09 08:09:47;;;;;;;25.17;12.88;;;;;;;;;;5077216;28;20050;-75
2022/09/09 08:12:14;;;;;;;22.77;11.27;;;;;;;;;;5083206;28;20024;-77
2022/09/09 08:14:40;;;;;;;26.45;12.73;;;;;;;;;;5091425;28;20048;-76
2022/09/09 08:17:06;;;;;;;23.08;12.13;;;;;;;;;;5107429;28;20036;-76
2022/09/09 08:19:35;;;;;;;29.30;11.85;;;;;;;;;;5090744;28;20020;-79
2022/09/09 08:22:02;;;;;;;17.00;10.43;;;;;;;;;;5105379;28;20020;-77
2022/09/09 08:24:29;;;;;;;26.63;11.35;;;;;;;;;;5091375;28;20102;-77
2022/09/09 08:26:56;;;;;;;38.88;12.27;;;;;;;;;;5101849;28;20048;-78
2022/09/09 08:29:23;;;;;;;21.00;11.07;;;;;;;;;;5106400;28;20023;-79
2022/09/09 08:31:54;;;;;;;18.40;9.63;;;;;;;;;;5105001;28;20095;-78
2022/09/09 08:34:20;;;;;;;28.27;11.50;;;;;;;;;;5091838;28;20023;-79
2022/09/09 08:36:47;;;;;;;15.38;10.95;;;;;;;;;;5105974;28;20028;-77
2022/09/09 08:39:14;;;;;;;18.55;10.77;;;;;;;;;;5091613;28;20044;-78
2022/09/09 08:41:40;;;;;;;16.00;10.18;;;;;;;;;;5092815;28;20050;-78
2022/09/09 08:44:25;;;;;;;25.25;10.10;;;;;;;;;;5106951;28;20028;-78
2022/09/09 08:47:07;;;;;;;15.05;7.95;;;;;;;;;;5091700;28;20020;-78
2022/09/09 08:49:33;;;;;;;15.43;9.32;;;;;;;;;;5097730;28;20051;-79
2022/09/09 08:51:59;;;;;;;19.65;8.00;;;;;;;;;;5090337;28;20047;-77
2022/09/09 08:54:27;;;;;;;25.88;10.38;;;;;;;;;;5090535;28;20107;-77
2022/09/09 08:56:53;;;;;;;16.88;9.10;;;;;;;;;;5090975;28;20035;-78
2022/09/09 08:59:20;;;;;;;16.00;10.27;;;;;;;;;;5097962;28;20012;-78
2022/09/09 09:01:49;;;;;;;21.52;9.75;;;;;;;;;;5106450;28;20024;-79
2022/09/09 09:04:31;;;;;;;18.00;9.10;;;;;;;;;;5107150;28;20028;-79
2022/09/09 09:07:15;;;;;;;14.75;8.63;;;;;;;;;;5106650;28;20098;-78
2022/09/09 09:09:42;;;;;;;22.75;9.50;;;;;;;;;;5091280;28;20073;-78
2022/09/09 09:12:15;;;;;;;14.95;9.48;;;;;;;;;;5105568;28;20039;-79
2022/09/09 09:14:42;;;;;;;13.98;8.68;;;;;;;;;;5104277;28;20153;-79
2022/09/09 09:17:13;;;;;;;14.98;8.80;;;;;;;;;;5092273;28;20032;-79
2022/09/09 09:19:40;;;;;;;13.45;8.30;;;;;;;;;;5083189;28;20043;-79
2022/09/09 09:22:15;;;;;;;22.52;10.30;;;;;;;;;;5092314;28;20428;-78
2022/09/09 09:25:01;;;;;;;21.50;10.18;;;;;;;;;;5094366;28;20028;-78
2022/09/09 09:27:40;;;;;;;16.88;8.13;;;;;;;;;;5089502;28;20040;-79
2022/09/09 09:30:26;;;;;;;14.40;9.68;;;;;;;;;;5098950;28;20032;-79
2022/09/09 09:32:58;;;;;;;17.05;9.05;;;;;;;;;;5099649;28;20024;-78
2022/09/09 09:35:24;;;;;;;16.30;8.20;;;;;;;;;;5094836;28;20033;-78
2022/09/09 09:37:51;;;;;;;16.80;8.35;;;;;;;;;;5109190;28;20035;-77
2022/09/09 09:40:18;;;;;;;14.57;7.25;;;;;;;;;;5067270;28;20037;-78
2022/09/09 09:42:56;;;;;;;19.83;9.27;;;;;;;;;;5053339;28;20227;-78
2022/09/09 09:45:29;;;;;;;12.63;7.82;;;;;;;;;;5060894;28;20488;-79
2022/09/09 09:48:22;;;;;;;33.60;9.40;;;;;;;;;;5074400;28;20031;-77
2022/09/09 09:51:02;;;;;;;13.30;8.88;;;;;;;;;;5040320;28;20089;-76
2022/09/09 09:53:33;;;;;;;15.48;9.30;;;;;;;;;;5054191;28;20029;-75
2022/09/09 09:56:01;;;;;;;11.73;8.80;;;;;;;;;;5054142;28;20024;-77
2022/09/09 09:58:28;;;;;;;13.40;8.32;;;;;;;;;;5055917;28;20044;-78
2022/09/09 10:00:54;;;;;;;17.98;8.63;;;;;;;;;;5066238;28;20092;-77
2022/09/09 10:03:23;;;;;;;21.02;8.25;;;;;;;;;;5052557;28;20110;-79
2022/09/09 10:05:49;;;;;;;13.18;7.82;;;;;;;;;;5067625;28;20021;-76
2022/09/09 10:08:16;;;;;;;13.80;8.02;;;;;;;;;;5066261;28;20021;-77
2022/09/09 10:10:45;;;;;;;14.68;8.82;;;;;;;;;;5054273;28;20048;-78
2022/09/09 10:13:32;;;;;;;12.38;7.50;;;;;;;;;;5052730;28;20048;-79
2022/09/09 10:16:13;;;;;;;12.45;7.78;;;;;;;;;;5052334;28;20032;-78
2022/09/09 10:18:39;;;;;;;14.80;7.72;;;;;;;;;;5052520;28;20459;-78
2022/09/09 10:21:25;;;;;;;16.10;7.60;;;;;;;;;;5060586;28;20020;-78
2022/09/09 10:24:01;;;;;;;9.50;6.22;;;;;;;;;;5072503;28;20733;-78
2022/09/09 10:26:36;;;;;;;12.27;7.05;;;;;;;;;;5069683;28;20052;-77
2022/09/09 10:29:09;;;;;;;10.38;6.85;;;;;;;;;;5061677;28;20033;-77
2022/09/09 10:31:47;;;;;;;12.30;7.15;;;;;;;;;;5053458;28;20017;-78
2022/09/09 10:34:13;;;;;;;13.43;7.00;;;;;;;;;;5053034;28;20076;-78
2022/09/09 10:36:43;;;;;;;12.85;7.63;;;;;;;;;;5062495;28;20029;-78
2022/09/09 10:39:15;;;;;;;8.85;6.20;;;;;;;;;;5074682;28;20240;-79
2022/09/09 10:41:50;;;;;;;11.40;6.50;;;;;;;;;;5098546;28;20035;-78
2022/09/09 10:44:35;;;;;;;16.70;7.07;;;;;;;;;;5088640;28;20020;-79
2022/09/09 10:47:18;;;;;;;12.13;6.68;;;;;;;;;;5093212;28;20024;-78
2022/09/09 10:50:02;;;;;;;12.27;6.70;;;;;;;;;;5100070;28;20031;-78
2022/09/09 10:52:47;;;;;;;10.50;6.68;;;;;;;;;;5100619;27;20772;-79
2022/09/09 10:55:21;;;;;;;12.05;6.10;;;;;;;;;;5099652;28;20482;-78
2022/09/09 10:57:48;;;;;;;15.63;7.43;;;;;;;;;;5095029;28;20051;-77
2022/09/09 11:00:14;;;;;;;15.40;8.38;;;;;;;;;;5092509;28;20024;-79
2022/09/09 11:02:44;;;;;;;12.35;6.85;;;;;;;;;;5117596;27;20050;-78
2022/09/09 11:05:10;;;;;;;11.38;7.50;;;;;;;;;;5100511;28;20013;-77
2022/09/09 11:07:48;;;;;;;13.40;6.65;;;;;;;;;;5094569;28;20044;-77
2022/09/09 11:10:26;;;;;;;13.85;6.40;;;;;;;;;;5122108;27;20024;-77
2022/09/09 11:12:54;;;;;;;8.40;5.57;;;;;;;;;;5096323;28;20032;-78
2022/09/09 11:15:37;;;;;;;10.05;6.10;;;;;;;;;;5098425;28;20022;-77
2022/09/09 11:18:05;;;;;;;13.48;6.43;;;;;;;;;;5104581;28;20059;-78
2022/09/09 11:20:32;;;;;;;14.32;6.25;;;;;;;;;;5105949;28;20565;-79
2022/09/09 11:23:06;;;;;;;10.18;6.22;;;;;;;;;;5089259;28;20038;-77
2022/09/09 11:25:43;;;;;;;13.07;6.28;;;;;;;;;;5104195;28;20023;-76
2022/09/09 11:28:11;;;;;;;8.98;5.55;;;;;;;;;;5093935;28;20053;-79
2022/09/09 11:30:40;;;;;;;12.48;5.68;;;;;;;;;;5099907;28;20021;-77
2022/09/09 11:33:11;;;;;;;9.38;5.60;;;;;;;;;;5100956;28;20073;-78
2022/09/09 11:35:56;;;;;;;9.82;5.38;;;;;;;;;;5102365;28;20505;-80
2022/09/09 11:38:42;;;;;;;9.13;5.03;;;;;;;;;;5107942;28;20056;-79
2022/09/09 11:41:09;;;;;;;9.73;5.20;;;;;;;;;;5081028;28;20074;-77
2022/09/09 11:43:51;;;;;;;10.60;4.78;;;;;;;;;;5090100;28;20020;-77
2022/09/09 11:46:20;;;;;;;12.40;5.53;;;;;;;;;;5079935;28;20106;-78
2022/09/09 11:48:57;;;;;;;9.38;4.75;;;;;;;;;;5092161;28;20486;-77
2022/09/09 11:51:26;;;;;;;7.90;4.53;;;;;;;;;;5086085;28;20028;-75
2022/09/09 11:53:55;;;;;;;14.20;5.45;;;;;;;;;;5094286;28;20062;-77
2022/09/09 11:56:31;;;;;;;12.18;4.82;;;;;;;;;;5092620;28;20020;-75
2022/09/09 11:59:03;;;;;;;12.00;5.65;;;;;;;;;;5073555;28;20395;-77
2022/09/09 12:01:41;;;;;;;11.02;5.47;;;;;;;;;;5092183;28;20030;-79
2022/09/09 12:04:08;;;;;;;10.57;5.07;;;;;;;;;;5078993;28;20020;-79
2022/09/09 12:06:42;;;;;;;15.50;5.95;;;;;;;;;;5092152;28;20047;-77
2022/09/09 12:09:23;;;;;;;18.33;6.18;;;;;;;;;;5078468;28;20476;-76
2022/09/09 12:11:50;;;;;;;8.85;5.55;;;;;;;;;;5105990;28;20032;-77
2022/09/09 12:14:23;;;;;;;17.00;6.03;;;;;;;;;;5095313;28;20474;-77
2022/09/09 12:16:50;;;;;;;12.57;5.85;;;;;;;;;;5093263;28;20024;-78
2022/09/09 12:19:19;;;;;;;14.73;5.65;;;;;;;;;;5104854;28;20024;-78
2022/09/09 12:21:45;;;;;;;10.05;4.97;;;;;;;;;;5090654;28;20020;-78
2022/09/09 12:24:12;;;;;;;7.97;5.15;;;;;;;;;;5091374;28;20020;-78
2022/09/09 12:26:44;;;;;;;8.63;4.68;;;;;;;;;;5092955;28;20016;-78
2022/09/09 12:29:13;;;;;;;12.40;5.00;;;;;;;;;;5095676;28;20043;-77
2022/09/09 12:31:42;;;;;;;9.75;5.50;;;;;;;;;;5097570;28;20028;-77
2022/09/09 12:34:13;;;;;;;14.52;6.72;;;;;;;;;;5098365;28;20031;-78
2022/09/09 12:36:40;;;;;;;9.40;5.82;;;;;;;;;;5087560;28;20016;-78
2022/09/09 12:39:30;;;;;;;8.82;5.45;;;;;;;;;;5096341;28;20094;-78
2022/09/09 12:41:58;;;;;;;10.10;5.30;;;;;;;;;;5090874;28;20500;-76
2022/09/09 12:44:27;;;;;;;8.80;5.60;;;;;;;;;;5093701;28;20073;-78
2022/09/09 12:46:55;;;;;;;12.88;5.10;;;;;;;;;;5095446;28;21339;-75
2022/09/09 12:49:34;;;;;;;10.55;5.30;;;;;;;;;;5093985;28;20050;-79
2022/09/09 12:52:05;;;;;;;11.48;4.95;;;;;;;;;;5095650;28;20028;-74
2022/09/09 12:54:31;;;;;;;12.65;4.88;;;;;;;;;;5116927;28;20065;-78
2022/09/09 12:56:57;;;;;;;10.57;5.05;;;;;;;;;;5093821;28;20029;-77
2022/09/09 12:59:25;;;;;;;9.88;4.70;;;;;;;;;;5115986;28;20108;-75
2022/09/09 13:01:58;;;;;;;10.70;5.05;;;;;;;;;;5089202;28;20035;-77
2022/09/09 13:04:24;;;;;;;9.38;4.97;;;;;;;;;;5085737;28;20082;-79
2022/09/09 13:06:52;;;;;;;10.10;4.80;;;;;;;;;;5095185;28;20044;-77
2022/09/09 13:09:18;;;;;;;16.00;4.63;;;;;;;;;;5095992;28;20482;-79
2022/09/09 13:11:50;;;;;;;11.65;4.93;;;;;;;;;;5107443;28;20482;-79
2022/09/09 13:14:20;;;;;;;9.90;4.20;;;;;;;;;;5096236;28;20100;-78
2022/09/09 13:16:56;;;;;;;8.40;4.85;;;;;;;;;;5095246;28;20074;-75
2022/09/09 13:19:25;;;;;;;12.85;4.97;;;;;;;;;;5100138;28;20019;-79
2022/09/09 13:21:52;;;;;;;9.40;4.68;;;;;;;;;;5078508;28;20438;-78
2022/09/09 13:24:36;;;;;;;9.57;4.05;;;;;;;;;;5105756;28;20027;-78
2022/09/09 13:27:04;;;;;;;9.65;4.15;;;;;;;;;;5094210;28;20028;-78
2022/09/09 13:29:31;;;;;;;5.90;3.55;;;;;;;;;;5110677;28;20027;-75
2022/09/09 13:32:07;;;;;;;8.13;3.72;;;;;;;;;;5104159;28;20470;-77
2022/09/09 13:34:37;;;;;;;6.43;3.47;;;;;;;;;;5104991;28;20016;-79
2022/09/09 13:37:06;;;;;;;7.53;3.58;;;;;;;;;;5103352;28;20463;-78
2022/09/09 13:39:34;;;;;;;6.55;3.67;;;;;;;;;;5100073;28;20048;-77
2022/09/09 13:42:00;;;;;;;7.55;4.68;;;;;;;;;;5094409;28;20406;-76
2022/09/09 13:44:39;;;;;;;10.48;4.15;;;;;;;;;;5110328;28;20020;-77
2022/09/09 13:47:06;;;;;;;8.05;3.78;;;;;;;;;;5110460;28;20024;-76
2022/09/09 13:49:33;;;;;;;8.88;4.00;;;;;;;;;;5110527;28;20482;-77
2022/09/09 13:52:16;;;;;;;6.65;3.83;;;;;;;;;;5100926;28;20030;-75
2022/09/09 13:54:43;;;;;;;5.43;3.42;;;;;;;;;;5094606;28;20020;-76
2022/09/09 13:57:15;;;;;;;8.32;4.05;;;;;;;;;;5111528;28;20043;-73
2022/09/09 13:59:43;;;;;;;9.02;5.07;;;;;;;;;;5096725;28;20027;-75
2022/09/09 14:02:09;;;;;;;5.60;3.63;;;;;;;;;;5104179;28;20028;-78
2022/09/09 14:04:35;;;;;;;7.07;3.60;;;;;;;;;;5103651;28;20016;-78
2022/09/09 14:07:02;;;;;;;8.10;3.53;;;;;;;;;;5113233;28;20031;-77
2022/09/09 14:09:28;;;;;;;14.40;4.07;;;;;;;;;;5079699;28;20069;-78
2022/09/09 14:11:57;;;;;;;8.07;4.00;;;;;;;;;;5094217;28;20067;-80
2022/09/09 14:14:25;;;;;;;8.88;3.90;;;;;;;;;;5093980;28;20135;-80
2022/09/09 14:16:51;;;;;;;5.47;3.00;;;;;;;;;;5104125;28;20031;-79
2022/09/09 14:19:18;;;;;;;15.05;3.95;;;;;;;;;;5114118;28;20015;-79
2022/09/09 14:21:44;;;;;;;6.32;3.95;;;;;;;;;;5094862;28;20491;-78
2022/09/09 14:24:10;;;;;;;8.75;4.65;;;;;;;;;;5094931;28;20024;-78
2022/09/09 14:26:36;;;;;;;14.32;4.95;;;;;;;;;;5078005;28;20015;-77
2022/09/09 14:29:02;;;;;;;10.70;4.70;;;;;;;;;;5108024;28;20099;-78
2022/09/09 14:31:28;;;;;;;8.80;4.40;;;;;;;;;;5095012;28;20053;-77
2022/09/09 14:33:54;;;;;;;9.95;5.00;;;;;;;;;;5094388;28;20023;-78
2022/09/09 14:36:20;;;;;;;12.45;5.72;;;;;;;;;;5093464;28;20405;-78
2022/09/09 14:38:48;;;;;;;13.65;6.93;;;;;;;;;;5093104;28;20056;-76